Overview Statistics Trail Chart Weather Telemetry Raw packets
 

This is the latest recevied telemetry packets stored in our database for station/object OE6POD-4. If no packets are shown the sender has not sent any telemetry packets the latest 10 day(s).

Telemetry packets is used to share measurements like repeteater parameters, battery voltage, radiation readings (or any other measurements).

<< 1 2 3 4 >>
Time Press* Temp.in* Hum* QNH* Temp.out*
1778216950 940.7 hPa 25.3 C deg 51.3 % 1019.8 hPa 0 C deg
1778215127 940.7 hPa 26.1 C deg 57.4 % 1019.6 hPa 0 C deg
1778213324 940.6 hPa 26.1 C deg 57.6 % 1019.4 hPa 0 C deg
1778211518 940.3 hPa 26.2 C deg 57.8 % 1019.1 hPa 0 C deg
1778209684 940.2 hPa 26.1 C deg 57.7 % 1019 hPa 0 C deg
1778207866 940.1 hPa 26.2 C deg 57.5 % 1018.9 hPa 0 C deg
1778206055 940.3 hPa 26.2 C deg 57.3 % 1019 hPa 0 C deg
1778204270 940.3 hPa 26.2 C deg 57.3 % 1019.1 hPa 0 C deg
1778202424 940.1 hPa 26.1 C deg 57.7 % 1018.9 hPa 0 C deg
1778200610 939.9 hPa 26.1 C deg 57.5 % 1018.7 hPa 0 C deg
1778198798 940.1 hPa 26.1 C deg 56.9 % 1018.9 hPa 0 C deg
1778196986 940.2 hPa 26.1 C deg 56.8 % 1019 hPa 0 C deg
1778195160 940.5 hPa 26.2 C deg 56.9 % 1019.3 hPa 0 C deg
1778193345 940.4 hPa 26.3 C deg 56.7 % 1019.2 hPa 0 C deg
1778191533 940.6 hPa 26.5 C deg 56.2 % 1019.3 hPa 0 C deg
1778189719 940.2 hPa 26.6 C deg 56.1 % 1018.9 hPa 0 C deg
1778187900 939.9 hPa 26.9 C deg 55.4 % 1018.4 hPa 0 C deg
1778186342 939.9 hPa 26.7 C deg 55.8 % 1018.5 hPa 0 C deg
1778184286 939.5 hPa 26.7 C deg 55.6 % 1018 hPa 0 C deg
1778182459 939.1 hPa 26.7 C deg 55.4 % 1017.7 hPa 0 C deg
1778180652 938.9 hPa 26.6 C deg 54.6 % 1017.4 hPa 0 C deg
1778178858 938.3 hPa 26.2 C deg 54.4 % 1017 hPa 0 C deg
1778177012 938 hPa 26.3 C deg 54.2 % 1016.5 hPa 0 C deg
1778175195 937.9 hPa 26.3 C deg 54.3 % 1016.4 hPa 0 C deg
1778171565 937.3 hPa 26.2 C deg 53.7 % 1015.8 hPa 0 C deg
*Used Equation Coefficients:
Press: 0, 1, 0
Temp.in: 0, 1, 0
Hum: 0, 1, 0
QNH: 0, 1, 0
Temp.out: 0, 1, 0

  • The parameter names for the analog channels will be Value1, Value2, Value3 (up to Value5) if station has not sent a PARAM-packet that specifies the parameter names for each analog channel.
  • Each analog value is a decimal number between 000 and 255 (according to APRS specifications). The receiver use the telemetry equation coefficientsto to restore the original sensor values. If no EQNS-packet with equation coefficients is sent we will show the values as is (this corresponds to the equation coefficients a=0, b=1 and c=0).
    The sent equation coefficients is used in the equation: a * value2 + b * value + c.
  • The units for the analog values will not be shown if station has not sent a UNIT-packet specifying what unit's to use.
  • The parameter names for the digital bits will be Bit1, Bit2, Bit3 (up to Bit8) if station has not sent a PARAM-packet that specifies the parameter names for each digital bit.
  • All bit labels will be named "On" if station has not sent a UNIT-packet that specifies the label of each bit.
  • A bit is considered to be On when the bit is 1 if station has not sent a BITS-packet that specifies another "Bit sense" (a BITS-packet specify the state of the bits that match the BIT labels)